Weather at CFB Esquimalt - Colwood Heliport

Public forecast

Using degrees Celsius for public forecast. Weather courtesy of forecast.io.

Closest aviation weather report (METAR) to CFB Esquimalt - Colwood Heliport

Closest report is Victoria Harbour Seaplane Base, 3.6 nm (6.6 km) ESE.

2024/05/21 01:00 (retrieved 47 minutes ago)

CYWH 210100Z 24017G24KT 15SM FEW030 BKN240 14/05 A3018 RMK SC1CI6 SLP222

Closest aviation forecast (TAF) to CFB Esquimalt - Colwood Heliport

Closest forecast is Victoria Harbour Seaplane Base, 3.6 nm (6.6 km) ESE.

2024/05/20 21:00 (retrieved 5 hours ago)

TAF CYWH 202040Z 2021/2104 18008KT P6SM FEW030 BKN230 FM210000 22015KT P6SM BKN120 RMK NXT FCST BY 211400Z